Time;durP1;ratioP1;P1;durP2;ratioP2;P2;SDS_P1;SDS_P2;PMS_P1;PMS_P2;Temp;Humidity;BMP_temperature;BMP_pressure;BME280_temperature;BME280_humidity;BME280_pressure;Samples;Min_cycle;Max_cycle;Signal;HPM_P1;HPM_P2
2023/05/27 00:02:01;;;;;;;9.63;2.90;;;11.50;99.90;;;;;;5084224;28;20598;-58
2023/05/27 00:04:28;;;;;;;11.07;3.67;;;11.60;99.90;;;;;;5084747;28;20342;-57
2023/05/27 00:06:55;;;;;;;12.37;3.60;;;11.40;99.90;;;;;;5082491;28;20214;-58
2023/05/27 00:09:22;;;;;;;10.37;3.20;;;11.50;99.90;;;;;;5081625;28;20350;-57
2023/05/27 00:11:48;;;;;;;8.23;3.00;;;11.30;99.90;;;;;;5080796;28;20207;-57
2023/05/27 00:14:17;;;;;;;9.97;3.30;;;11.20;99.90;;;;;;5071064;28;20204;-57
2023/05/27 00:16:44;;;;;;;9.50;3.27;;;11.10;99.90;;;;;;5079018;28;20211;-57
2023/05/27 00:19:11;;;;;;;10.77;3.33;;;11.20;99.90;;;;;;5083195;28;20206;-57
2023/05/27 00:21:38;;;;;;;9.33;3.13;;;11.30;99.90;;;;;;5085850;28;20210;-57
2023/05/27 00:24:05;;;;;;;10.70;2.90;;;11.50;99.90;;;;;;5082958;28;20228;-57
2023/05/27 00:26:32;;;;;;;9.97;2.77;;;11.40;99.90;;;;;;5082480;28;20234;-57
2023/05/27 00:28:59;;;;;;;9.37;2.80;;;11.40;99.90;;;;;;5081875;28;20202;-57
2023/05/27 00:31:26;;;;;;;14.73;3.07;;;11.20;99.90;;;;;;5081787;28;20198;-57
2023/05/27 00:33:53;;;;;;;10.00;2.90;;;11.10;99.90;;;;;;5077879;28;20234;-57
2023/05/27 00:36:21;;;;;;;9.67;2.97;;;11.30;99.90;;;;;;5082303;28;20202;-57
2023/05/27 00:38:47;;;;;;;11.43;2.83;;;11.30;99.90;;;;;;5065954;28;20215;-57
2023/05/27 00:41:14;;;;;;;9.03;3.53;;;11.20;99.90;;;;;;5083830;28;20579;-57
2023/05/27 00:43:41;;;;;;;8.67;3.93;;;11.20;99.90;;;;;;5082515;28;20581;-57
2023/05/27 00:46:09;;;;;;;9.10;3.30;;;11.30;99.90;;;;;;5066261;28;20205;-56
2023/05/27 00:48:36;;;;;;;9.30;3.40;;;11.20;99.90;;;;;;5085169;28;20226;-57
2023/05/27 00:51:03;;;;;;;11.07;3.30;;;11.30;99.90;;;;;;5070015;28;20240;-57
2023/05/27 00:53:38;;;;;;;5.77;2.63;;;11.30;99.90;;;;;;5086288;28;20206;-57
2023/05/27 00:56:07;;;;;;;10.40;3.20;;;11.10;99.90;;;;;;5086897;28;20662;-60
2023/05/27 00:58:35;;;;;;;9.37;2.80;;;11.20;99.90;;;;;;5087301;28;20233;-57
2023/05/27 01:01:04;;;;;;;8.10;2.63;;;11.30;99.90;;;;;;5085302;28;20205;-62
2023/05/27 01:03:33;;;;;;;13.87;3.63;;;11.30;99.90;;;;;;5085807;28;20207;-57
2023/05/27 01:06:18;;;;;;;11.47;3.20;;;11.10;99.90;;;;;;5089000;28;20242;-57
2023/05/27 01:09:05;;;;;;;8.93;3.33;;;11.00;99.90;;;;;;5086226;28;20195;-57
2023/05/27 01:11:40;;;;;;;7.37;2.93;;;11.00;99.90;;;;;;5084918;28;20647;-57
2023/05/27 01:14:12;;;;;;;11.03;3.83;;;11.00;99.90;;;;;;5085751;28;20201;-57
2023/05/27 01:16:40;;;;;;;12.87;3.43;;;11.00;99.90;;;;;;5087177;28;20222;-57
2023/05/27 01:19:14;;;;;;;9.40;3.30;;;10.90;99.90;;;;;;5087666;28;20206;-57
2023/05/27 01:21:46;;;;;;;10.17;2.73;;;10.80;99.90;;;;;;5086350;28;20198;-57
2023/05/27 01:24:12;;;;;;;5.77;2.70;;;10.80;99.90;;;;;;5085531;28;20230;-56
2023/05/27 01:26:40;;;;;;;11.43;2.97;;;10.90;99.90;;;;;;5085221;28;20234;-57
2023/05/27 01:29:07;;;;;;;10.67;3.70;;;10.80;99.90;;;;;;5086014;28;20202;-57
2023/05/27 01:31:51;;;;;;;11.90;3.60;;;10.80;99.90;;;;;;5088242;28;20195;-58
2023/05/27 01:34:24;;;;;;;9.07;3.33;;;10.70;99.90;;;;;;5085177;28;20232;-57
2023/05/27 01:36:57;;;;;;;10.07;3.40;;;10.50;99.90;;;;;;5089488;28;20720;-57
2023/05/27 01:39:25;;;;;;;9.83;3.30;;;10.70;99.90;;;;;;5087786;28;20209;-57
2023/05/27 01:41:54;;;;;;;12.17;3.53;;;10.70;99.90;;;;;;5084381;28;20572;-57
2023/05/27 01:44:22;;;;;;;9.00;3.33;;;10.60;99.90;;;;;;5082258;28;20347;-57
2023/05/27 01:46:49;;;;;;;10.33;3.50;;;10.80;99.90;;;;;;5086671;28;20194;-57
2023/05/27 01:49:16;;;;;;;8.50;3.07;;;10.80;99.90;;;;;;5085867;28;20206;-57
2023/05/27 01:51:43;;;;;;;7.40;3.20;;;10.80;99.90;;;;;;5087108;28;20205;-57
2023/05/27 01:54:10;;;;;;;8.93;3.13;;;10.70;99.90;;;;;;5085647;28;20247;-57
2023/05/27 01:56:37;;;;;;;9.97;3.37;;;10.60;99.90;;;;;;5086458;28;20305;-57
2023/05/27 01:59:04;;;;;;;12.07;4.23;;;10.60;99.90;;;;;;5065086;28;20709;-57
2023/05/27 02:01:33;;;;;;;8.97;3.23;;;10.40;99.90;;;;;;5087446;28;20291;-56
2023/05/27 02:04:00;;;;;;;10.27;3.10;;;10.20;99.90;;;;;;5064423;28;20194;-57
2023/05/27 02:06:27;;;;;;;14.50;3.47;;;10.20;99.90;;;;;;5085027;28;20191;-56
2023/05/27 02:08:54;;;;;;;7.43;3.10;;;10.40;99.90;;;;;;5083743;28;20202;-57
2023/05/27 02:11:21;;;;;;;13.93;3.33;;;10.50;99.90;;;;;;5087832;28;20198;-56
2023/05/27 02:13:49;;;;;;;9.70;3.23;;;10.40;99.90;;;;;;5082235;28;20202;-56
2023/05/27 02:16:16;;;;;;;10.20;3.73;;;10.20;99.90;;;;;;5066597;28;20218;-57
2023/05/27 02:18:43;;;;;;;13.17;3.37;;;10.20;99.90;;;;;;5072491;28;20630;-57
2023/05/27 02:21:10;;;;;;;11.00;3.47;;;10.20;99.90;;;;;;5085450;28;20690;-57
2023/05/27 02:23:36;;;;;;;10.13;3.80;;;10.30;99.90;;;;;;5082329;28;20207;-56
2023/05/27 02:26:04;;;;;;;9.37;3.37;;;10.40;99.90;;;;;;5084880;28;20574;-57
2023/05/27 02:28:30;;;;;;;12.03;3.67;;;10.50;99.90;;;;;;5082852;28;20195;-59
2023/05/27 02:30:59;;;;;;;12.73;3.37;;;10.50;99.90;;;;;;5085295;28;20271;-57
2023/05/27 02:33:26;;;;;;;9.33;3.10;;;10.60;99.90;;;;;;5080066;28;20237;-57
2023/05/27 02:35:53;;;;;;;12.23;3.47;;;10.50;99.90;;;;;;5088259;28;20337;-56
2023/05/27 02:38:20;;;;;;;10.43;3.13;;;10.30;99.90;;;;;;5087296;28;20198;-58
2023/05/27 02:40:47;;;;;;;6.73;3.60;;;10.30;99.90;;;;;;5080912;28;20229;-57
2023/05/27 02:43:14;;;;;;;8.33;2.93;;;10.20;99.90;;;;;;5069057;28;20213;-57
2023/05/27 02:45:41;;;;;;;8.23;3.53;;;10.00;99.90;;;;;;5087975;28;22258;-57
2023/05/27 02:48:08;;;;;;;10.30;3.47;;;9.90;99.90;;;;;;5053129;28;20195;-58
2023/05/27 02:50:35;;;;;;;7.50;3.63;;;9.80;99.90;;;;;;5059660;28;20261;-61
2023/05/27 02:53:02;;;;;;;12.63;3.73;;;9.90;99.90;;;;;;5067681;28;20276;-57
2023/05/27 02:55:29;;;;;;;10.80;3.60;;;10.10;99.90;;;;;;5084210;28;20681;-57
2023/05/27 02:57:56;;;;;;;10.60;3.43;;;10.10;99.90;;;;;;5082549;28;20251;-56
2023/05/27 03:00:23;;;;;;;13.10;3.57;;;10.00;99.90;;;;;;5079214;28;21423;-57
2023/05/27 03:02:49;;;;;;;12.40;3.23;;;10.10;99.90;;;;;;5079585;28;20209;-56
2023/05/27 03:05:16;;;;;;;10.43;3.50;;;10.20;99.90;;;;;;5051438;28;20293;-56
2023/05/27 03:07:43;;;;;;;9.13;3.50;;;10.10;99.90;;;;;;5063098;28;20195;-58
2023/05/27 03:10:10;;;;;;;10.97;3.87;;;10.20;99.90;;;;;;5066320;28;22469;-57
2023/05/27 03:12:38;;;;;;;11.00;3.40;;;10.10;99.90;;;;;;5072668;28;20195;-57
2023/05/27 03:15:05;;;;;;;13.63;4.23;;;9.80;99.90;;;;;;5084578;28;20210;-57
2023/05/27 03:17:35;;;;;;;9.13;3.53;;;9.90;99.90;;;;;;5083461;28;20728;-57
2023/05/27 03:20:03;;;;;;;9.77;4.07;;;10.00;99.90;;;;;;5087657;28;20255;-57
2023/05/27 03:22:30;;;;;;;12.93;3.50;;;10.00;99.90;;;;;;5084767;28;20198;-57
2023/05/27 03:24:57;;;;;;;12.10;3.37;;;10.10;99.90;;;;;;5082912;28;20253;-56
2023/05/27 03:27:24;;;;;;;13.33;4.03;;;10.00;99.90;;;;;;5086748;28;20200;-57
2023/05/27 03:29:51;;;;;;;9.97;3.70;;;9.80;99.90;;;;;;5060606;28;20249;-57
2023/05/27 03:32:18;;;;;;;9.57;3.60;;;9.90;99.90;;;;;;5085108;28;20227;-57
2023/05/27 03:34:45;;;;;;;9.70;3.90;;;9.90;99.90;;;;;;5043445;28;20211;-58
2023/05/27 03:37:13;;;;;;;7.40;3.10;;;9.90;99.90;;;;;;5085728;28;20203;-57
2023/05/27 03:39:40;;;;;;;12.70;3.73;;;9.80;99.90;;;;;;5085326;28;20244;-57
2023/05/27 03:42:07;;;;;;;10.00;3.50;;;9.90;99.90;;;;;;5082813;28;20244;-57
2023/05/27 03:44:34;;;;;;;9.70;3.17;;;9.90;99.90;;;;;;5061594;28;20190;-57
2023/05/27 03:47:02;;;;;;;8.23;3.43;;;9.80;99.90;;;;;;5078690;28;20195;-57
2023/05/27 03:49:29;;;;;;;13.70;3.87;;;9.90;99.90;;;;;;5067708;28;20206;-57
2023/05/27 03:51:56;;;;;;;12.33;3.87;;;9.90;99.90;;;;;;5064753;28;20974;-57
2023/05/27 03:54:23;;;;;;;9.60;3.90;;;9.90;99.90;;;;;;5064465;28;20518;-57
2023/05/27 03:56:50;;;;;;;9.80;3.70;;;9.90;99.90;;;;;;5050761;28;20218;-58
2023/05/27 03:59:17;;;;;;;6.13;3.37;;;9.70;99.90;;;;;;5049156;28;20220;-57
2023/05/27 04:01:44;;;;;;;10.13;3.63;;;9.70;99.90;;;;;;5062349;28;22046;-57
2023/05/27 04:04:11;;;;;;;11.93;4.03;;;9.80;99.90;;;;;;5057557;28;20206;-59
2023/05/27 04:06:38;;;;;;;11.87;4.17;;;9.80;99.90;;;;;;5062808;28;20222;-57
2023/05/27 04:09:05;;;;;;;14.27;4.23;;;9.70;99.90;;;;;;5056200;28;20221;-58
2023/05/27 04:11:32;;;;;;;11.03;3.93;;;9.70;99.90;;;;;;5054519;28;20207;-57
2023/05/27 04:13:59;;;;;;;13.10;4.13;;;9.80;99.90;;;;;;5073090;28;20222;-57
2023/05/27 04:16:26;;;;;;;11.43;4.03;;;9.80;99.90;;;;;;5075704;28;20217;-57
2023/05/27 04:18:53;;;;;;;11.63;3.90;;;9.80;99.90;;;;;;5078849;28;20208;-57
2023/05/27 04:21:20;;;;;;;9.33;3.23;;;9.70;99.90;;;;;;5082529;28;20212;-57
2023/05/27 04:23:47;;;;;;;14.30;4.00;;;9.80;99.90;;;;;;5082477;28;20224;-57
2023/05/27 04:26:14;;;;;;;9.77;3.70;;;9.90;99.90;;;;;;5083406;28;20289;-57
2023/05/27 04:28:45;;;;;;;16.37;5.10;;;10.00;99.90;;;;;;5083194;28;20559;-57
2023/05/27 04:31:12;;;;;;;13.17;4.77;;;9.90;99.90;;;;;;5087296;28;20195;-57
2023/05/27 04:33:39;;;;;;;10.43;4.07;;;10.00;99.90;;;;;;5085478;28;20223;-57
2023/05/27 04:36:07;;;;;;;14.83;3.97;;;9.90;99.90;;;;;;5089573;28;20301;-57
2023/05/27 04:38:34;;;;;;;11.53;3.87;;;9.90;99.90;;;;;;5084965;28;20195;-57
2023/05/27 04:41:01;;;;;;;8.53;3.47;;;10.00;99.90;;;;;;5064587;28;20550;-57
2023/05/27 04:43:29;;;;;;;12.73;5.13;;;9.90;99.90;;;;;;5076047;28;20686;-60
2023/05/27 04:45:59;;;;;;;12.33;3.93;;;10.00;99.90;;;;;;5058810;28;20233;-61
2023/05/27 04:48:26;;;;;;;10.03;3.50;;;10.10;99.90;;;;;;5088349;28;20723;-57
2023/05/27 04:50:54;;;;;;;12.53;4.07;;;9.80;99.90;;;;;;5087811;28;20671;-57
2023/05/27 04:53:21;;;;;;;13.00;3.30;;;9.90;99.90;;;;;;5086755;28;20290;-57
2023/05/27 04:55:48;;;;;;;14.17;4.47;;;9.90;99.90;;;;;;5088052;28;20207;-57
2023/05/27 04:58:15;;;;;;;13.17;3.90;;;9.80;99.90;;;;;;5086132;28;20212;-58
2023/05/27 05:00:53;;;;;;;11.70;4.67;;;9.80;99.90;;;;;;5087325;28;20209;-61
2023/05/27 05:03:21;;;;;;;11.17;4.23;;;9.90;99.90;;;;;;5088776;28;20711;-58
2023/05/27 05:05:51;;;;;;;12.40;4.30;;;10.10;99.90;;;;;;5089288;28;20754;-57
2023/05/27 05:08:21;;;;;;;7.43;3.50;;;9.90;99.90;;;;;;5090530;28;20320;-58
2023/05/27 05:10:48;;;;;;;12.97;4.53;;;10.00;99.90;;;;;;5084517;28;20655;-57
2023/05/27 05:13:16;;;;;;;11.77;4.43;;;10.10;99.90;;;;;;5084596;28;20226;-59
2023/05/27 05:15:43;;;;;;;10.53;4.57;;;10.20;99.90;;;;;;5085919;28;20203;-58
2023/05/27 05:18:11;;;;;;;8.30;4.33;;;10.20;99.90;;;;;;5062707;28;20207;-58
2023/05/27 05:20:38;;;;;;;10.03;4.33;;;10.10;99.90;;;;;;5086290;28;20196;-57
2023/05/27 05:23:09;;;;;;;10.67;4.20;;;10.20;99.90;;;;;;5087466;28;20215;-57
2023/05/27 05:25:37;;;;;;;9.43;3.97;;;10.30;99.90;;;;;;5063817;28;20264;-57
2023/05/27 05:28:05;;;;;;;8.13;3.33;;;10.40;99.90;;;;;;5075461;28;20219;-57
2023/05/27 05:30:32;;;;;;;10.40;4.30;;;10.50;99.90;;;;;;5063536;28;20191;-57
2023/05/27 05:32:59;;;;;;;12.83;3.63;;;10.60;99.90;;;;;;5085835;28;20738;-57
2023/05/27 05:35:26;;;;;;;14.03;4.20;;;10.60;99.90;;;;;;5067506;28;20264;-57
2023/05/27 05:37:53;;;;;;;12.23;4.33;;;10.70;99.90;;;;;;5080344;28;20211;-57
2023/05/27 05:40:21;;;;;;;15.10;4.10;;;10.80;99.90;;;;;;5083341;28;20210;-58
2023/05/27 05:42:48;;;;;;;9.27;4.03;;;10.90;99.90;;;;;;5078049;28;20745;-58
2023/05/27 05:45:15;;;;;;;10.53;3.83;;;11.00;99.90;;;;;;5079447;28;20200;-63
2023/05/27 05:47:42;;;;;;;13.23;4.23;;;11.00;99.90;;;;;;5081652;28;21034;-62
2023/05/27 05:50:10;;;;;;;13.33;4.17;;;10.80;99.90;;;;;;5084318;28;20297;-59
2023/05/27 05:52:37;;;;;;;11.87;4.10;;;11.10;99.90;;;;;;5082008;28;20200;-59
2023/05/27 05:55:05;;;;;;;12.57;4.33;;;11.10;99.90;;;;;;5079505;28;20223;-58
2023/05/27 05:57:33;;;;;;;12.33;3.93;;;11.20;99.90;;;;;;5080334;28;20211;-58
2023/05/27 06:00:02;;;;;;;9.27;4.27;;;11.20;99.90;;;;;;5081321;28;20213;-57
2023/05/27 06:02:29;;;;;;;14.20;4.93;;;11.00;99.90;;;;;;5073035;28;20643;-57
2023/05/27 06:04:57;;;;;;;11.27;3.87;;;11.10;99.90;;;;;;5081291;28;21244;-58
2023/05/27 06:07:24;;;;;;;12.83;4.07;;;11.30;99.90;;;;;;5043618;28;20219;-58
2023/05/27 06:09:51;;;;;;;12.57;4.10;;;11.40;99.90;;;;;;5067493;28;20676;-58
2023/05/27 06:12:17;;;;;;;11.67;3.80;;;11.50;99.90;;;;;;5068938;28;20254;-58
2023/05/27 06:14:45;;;;;;;10.53;4.00;;;11.50;99.90;;;;;;5080649;28;20210;-58
2023/05/27 06:17:13;;;;;;;15.53;4.20;;;11.50;99.90;;;;;;5081312;28;20626;-58
2023/05/27 06:19:39;;;;;;;11.40;3.80;;;11.60;99.90;;;;;;5059377;28;20208;-57
2023/05/27 06:22:07;;;;;;;7.90;3.33;;;11.70;99.90;;;;;;5065807;28;20275;-62
2023/05/27 06:24:34;;;;;;;13.80;4.30;;;11.90;99.90;;;;;;5078281;28;20202;-57
2023/05/27 06:27:01;;;;;;;10.70;4.00;;;12.00;99.90;;;;;;5080902;28;20753;-57
2023/05/27 06:29:29;;;;;;;12.27;4.03;;;12.10;99.90;;;;;;5081865;28;20545;-57
2023/05/27 06:31:55;;;;;;;11.77;4.20;;;12.20;99.90;;;;;;5082567;28;20195;-58
2023/05/27 06:34:23;;;;;;;12.03;4.77;;;12.40;99.90;;;;;;5081238;28;20199;-58
2023/05/27 06:36:49;;;;;;;12.13;3.70;;;12.60;99.90;;;;;;5083156;28;20212;-58
2023/05/27 06:39:16;;;;;;;11.33;3.97;;;12.80;99.90;;;;;;5054557;28;20630;-58
2023/05/27 06:41:43;;;;;;;9.07;3.50;;;12.90;99.90;;;;;;5082178;28;21866;-57
2023/05/27 06:44:11;;;;;;;13.37;4.27;;;12.90;99.90;;;;;;5080784;28;20202;-58
2023/05/27 06:46:38;;;;;;;9.97;3.50;;;13.10;99.90;;;;;;5084706;28;20369;-58
2023/05/27 06:49:05;;;;;;;9.37;3.63;;;13.00;99.90;;;;;;5069182;28;20592;-58
2023/05/27 06:51:32;;;;;;;9.87;4.17;;;13.20;99.90;;;;;;5082055;28;20200;-58
2023/05/27 06:53:59;;;;;;;14.67;4.53;;;13.40;99.90;;;;;;5082376;28;20199;-57
2023/05/27 06:56:26;;;;;;;10.47;3.30;;;13.50;99.90;;;;;;5049119;28;20201;-57
2023/05/27 06:58:54;;;;;;;12.90;4.10;;;13.70;99.90;;;;;;5062290;28;20262;-58
2023/05/27 07:01:21;;;;;;;13.90;4.20;;;13.60;99.90;;;;;;5068670;28;20289;-57
2023/05/27 07:03:48;;;;;;;11.13;3.90;;;13.60;99.90;;;;;;5057443;28;20200;-58
2023/05/27 07:06:16;;;;;;;8.80;3.27;;;14.00;99.90;;;;;;5082706;28;20661;-57
2023/05/27 07:08:43;;;;;;;16.23;4.53;;;13.80;99.90;;;;;;5081266;28;21635;-57
2023/05/27 07:11:10;;;;;;;10.77;4.23;;;14.30;99.90;;;;;;5082737;28;20240;-58
2023/05/27 07:13:37;;;;;;;14.57;4.30;;;14.40;99.90;;;;;;5077337;28;20522;-58
2023/05/27 07:16:04;;;;;;;10.33;3.57;;;14.40;99.90;;;;;;5069587;28;20296;-57
2023/05/27 07:18:31;;;;;;;9.10;3.47;;;14.50;99.90;;;;;;5081224;28;20205;-58
2023/05/27 07:20:58;;;;;;;10.13;3.63;;;14.70;99.90;;;;;;5081752;28;20208;-57
2023/05/27 07:23:26;;;;;;;12.07;3.67;;;15.00;99.90;;;;;;5054125;28;21006;-58
2023/05/27 07:25:53;;;;;;;12.90;4.00;;;15.00;99.90;;;;;;5081554;28;20797;-57
2023/05/27 07:28:20;;;;;;;12.70;4.27;;;15.00;99.90;;;;;;5046186;28;20620;-58
2023/05/27 07:30:47;;;;;;;7.40;3.73;;;15.10;99.90;;;;;;5077906;28;20194;-58
2023/05/27 07:33:15;;;;;;;10.37;3.83;;;15.20;99.90;;;;;;5059958;28;20745;-64
2023/05/27 07:35:41;;;;;;;9.07;4.20;;;15.40;99.90;;;;;;5059545;28;20206;-57
2023/05/27 07:38:08;;;;;;;13.27;3.90;;;15.10;99.90;;;;;;5058849;28;20224;-58
2023/05/27 07:40:35;;;;;;;9.07;4.37;;;15.20;99.90;;;;;;5080557;28;20196;-57
2023/05/27 07:43:02;;;;;;;12.03;4.23;;;15.50;99.90;;;;;;5076991;28;20220;-58
2023/05/27 07:45:30;;;;;;;11.97;4.17;;;15.70;99.90;;;;;;5075956;28;21890;-57
2023/05/27 07:47:57;;;;;;;12.50;4.20;;;15.90;99.90;;;;;;5061711;28;20222;-60
2023/05/27 07:50:24;;;;;;;12.10;4.30;;;15.80;99.90;;;;;;5076073;28;20197;-59
2023/05/27 07:52:51;;;;;;;11.50;4.63;;;15.90;99.90;;;;;;5063271;28;20199;-60
2023/05/27 07:55:18;;;;;;;11.50;3.97;;;15.80;99.90;;;;;;5080409;28;20662;-60
2023/05/27 07:57:45;;;;;;;14.47;5.00;;;16.00;99.90;;;;;;5077809;28;20678;-60
2023/05/27 08:00:12;;;;;;;12.60;4.57;;;16.30;99.90;;;;;;4718436;28;9999677;-61
2023/05/27 08:02:39;;;;;;;11.17;4.30;;;16.20;99.90;;;;;;5063953;28;20206;-60
2023/05/27 08:05:07;;;;;;;9.73;4.83;;;16.40;99.90;;;;;;5078100;28;20213;-57
2023/05/27 08:07:33;;;;;;;10.90;4.47;;;16.20;99.90;;;;;;5084056;28;20218;-57
2023/05/27 08:10:00;;;;;;;12.90;4.50;;;16.50;99.90;;;;;;5084133;28;20762;-58
2023/05/27 08:12:27;;;;;;;10.10;4.63;;;16.60;99.90;;;;;;5066636;28;20652;-60
2023/05/27 08:14:54;;;;;;;13.43;5.40;;;16.80;99.90;;;;;;5054824;28;21101;-62
2023/05/27 08:17:21;;;;;;;14.17;4.77;;;17.10;99.90;;;;;;5072132;28;20265;-60
2023/05/27 08:19:48;;;;;;;14.10;4.70;;;17.50;99.90;;;;;;5060408;28;20308;-58
2023/05/27 08:22:15;;;;;;;12.00;4.70;;;17.70;99.90;;;;;;5058803;28;20297;-58
2023/05/27 08:24:42;;;;;;;14.97;4.97;;;17.90;99.90;;;;;;5079131;28;20214;-61
2023/05/27 08:27:18;;;;;;;9.57;4.40;;;18.00;1.00;;;;;;5079185;28;20244;-58
2023/05/27 08:29:45;;;;;;;10.07;4.80;;;18.00;1.00;;;;;;5079315;28;20557;-58
2023/05/27 08:32:12;;;;;;;12.67;4.67;;;17.80;99.90;;;;;;5079732;28;20194;-58
2023/05/27 08:34:39;;;;;;;10.83;5.07;;;18.00;99.90;;;;;;5079293;28;20604;-58
2023/05/27 08:37:05;;;;;;;15.97;5.10;;;17.50;1.00;;;;;;5081272;28;20228;-58
2023/05/27 08:39:32;;;;;;;10.50;4.17;;;17.70;99.90;;;;;;5084819;28;20205;-58
2023/05/27 08:42:02;;;;;;;9.77;5.53;;;18.00;99.90;;;;;;5056559;28;20206;-58
2023/05/27 08:44:29;;;;;;;11.90;4.87;;;18.10;99.90;;;;;;5078668;28;20249;-58
2023/05/27 08:46:56;;;;;;;9.80;4.70;;;18.00;99.90;;;;;;5054519;28;20229;-58
2023/05/27 08:49:23;;;;;;;11.67;5.30;;;18.40;99.90;;;;;;5078284;28;20602;-58
2023/05/27 08:51:51;;;;;;;10.70;5.00;;;18.10;99.90;;;;;;5082206;28;20205;-57
2023/05/27 08:54:20;;;;;;;14.47;5.07;;;18.20;99.90;;;;;;5079439;28;20248;-58
2023/05/27 08:56:50;;;;;;;12.23;4.80;;;18.40;99.90;;;;;;5053186;28;20602;-59
2023/05/27 08:59:17;;;;;;;12.20;4.93;;;18.10;99.90;;;;;;5077542;28;20727;-59
2023/05/27 09:01:45;;;;;;;12.17;5.27;;;18.40;99.90;;;;;;5073043;28;20915;-58
2023/05/27 09:04:12;;;;;;;10.90;4.70;;;18.20;99.90;;;;;;5079313;28;20213;-60
2023/05/27 09:06:39;;;;;;;12.83;5.57;;;18.50;99.90;;;;;;5080570;28;20236;-59
2023/05/27 09:09:09;;;;;;;27.53;5.67;;;18.50;99.90;;;;;;5063172;28;20199;-59
2023/05/27 09:11:42;;;;;;;14.30;4.77;;;18.50;99.90;;;;;;5081087;28;20650;-58
2023/05/27 09:14:20;;;;;;;12.17;5.37;;;18.20;99.90;;;;;;5077319;28;20206;-58
2023/05/27 09:16:47;;;;;;;18.77;5.50;;;18.30;99.90;;;;;;5071701;28;20258;-58
2023/05/27 09:19:18;;;;;;;11.03;4.30;;;17.90;99.90;;;;;;5063513;28;21055;-58
2023/05/27 09:21:46;;;;;;;14.50;6.00;;;17.90;99.90;;;;;;5082815;28;20190;-57
2023/05/27 09:24:13;;;;;;;11.30;4.77;;;17.70;99.90;;;;;;5080256;28;20212;-57
2023/05/27 09:26:41;;;;;;;13.70;5.30;;;17.70;99.90;;;;;;5081275;28;20227;-58
2023/05/27 09:29:08;;;;;;;13.87;5.70;;;17.70;99.90;;;;;;5072378;28;20984;-58
2023/05/27 09:31:40;;;;;;;14.17;5.87;;;17.50;99.90;;;;;;5074706;28;20199;-60
2023/05/27 09:34:15;;;;;;;12.57;5.40;;;17.20;99.90;;;;;;5056245;28;20236;-57
2023/05/27 09:36:47;;;;;;;15.97;4.87;;;17.80;99.90;;;;;;5079547;28;20328;-57
2023/05/27 09:39:15;;;;;;;9.97;4.97;;;18.10;99.90;;;;;;5081855;28;20626;-58
2023/05/27 09:41:42;;;;;;;11.40;4.90;;;18.50;99.90;;;;;;5057143;28;20567;-57
2023/05/27 09:44:09;;;;;;;13.67;5.00;;;18.90;99.90;;;;;;5077538;28;20232;-58
2023/05/27 09:46:36;;;;;;;12.37;5.13;;;18.70;1.00;;;;;;5079189;28;20587;-58
2023/05/27 09:49:04;;;;;;;10.57;5.47;;;18.80;99.90;;;;;;5071878;28;20267;-60
2023/05/27 09:51:32;;;;;;;12.37;5.30;;;18.80;99.90;;;;;;5084318;28;20199;-57
2023/05/27 09:53:59;;;;;;;11.97;5.43;;;18.70;99.90;;;;;;5085493;28;20749;-58
2023/05/27 09:56:27;;;;;;;11.63;5.03;;;18.90;1.00;;;;;;5084091;28;20205;-58
2023/05/27 09:58:57;;;;;;;11.87;4.70;;;18.70;1.00;;;;;;5084226;28;20209;-58
2023/05/27 10:01:29;;;;;;;15.57;5.40;;;19.10;1.00;;;;;;5076621;28;20847;-58
2023/05/27 10:03:56;;;;;;;15.67;5.13;;;18.70;99.90;;;;;;5078430;28;20197;-58
2023/05/27 10:06:26;;;;;;;10.53;4.80;;;18.40;99.90;;;;;;5069391;28;20208;-58
2023/05/27 10:08:53;;;;;;;13.87;5.40;;;18.60;1.00;;;;;;5061818;28;20210;-59
2023/05/27 10:11:21;;;;;;;13.10;5.23;;;18.90;1.00;;;;;;5077764;28;20682;-59
2023/05/27 10:13:49;;;;;;;16.97;5.00;;;18.70;99.90;;;;;;5079996;28;20199;-58
2023/05/27 10:16:23;;;;;;;13.23;5.40;;;19.20;99.90;;;;;;5081245;28;20940;-58
2023/05/27 10:18:57;;;;;;;14.00;4.97;;;19.20;99.90;;;;;;5078529;28;20365;-58
2023/05/27 10:21:28;;;;;;;10.33;4.30;;;19.50;99.90;;;;;;5081071;28;20204;-58
2023/05/27 10:23:59;;;;;;;12.80;5.30;;;19.80;99.90;;;;;;5079145;28;20214;-58
2023/05/27 10:26:39;;;;;;;13.60;5.37;;;19.70;99.90;;;;;;5080125;28;20243;-61
2023/05/27 10:29:14;;;;;;;11.77;4.63;;;19.90;99.90;;;;;;5063718;28;20193;-58
2023/05/27 10:31:50;;;;;;;10.90;4.90;;;19.90;99.90;;;;;;5075644;28;20230;-58
2023/05/27 10:34:20;;;;;;;16.40;5.43;;;19.80;99.90;;;;;;5077778;28;20232;-58
2023/05/27 10:36:57;;;;;;;9.83;4.53;;;19.80;99.90;;;;;;5079582;28;20328;-58
2023/05/27 10:39:24;;;;;;;13.40;4.87;;;19.70;99.90;;;;;;5056510;28;20212;-60
2023/05/27 10:41:56;;;;;;;12.67;5.03;;;20.00;99.90;;;;;;5084021;28;20194;-57
2023/05/27 10:44:35;;;;;;;12.67;5.17;;;20.10;99.90;;;;;;5082028;28;20208;-57
2023/05/27 10:47:11;;;;;;;13.20;4.70;;;19.90;99.90;;;;;;5059069;28;20259;-57
2023/05/27 10:49:39;;;;;;;8.43;4.33;;;20.10;99.90;;;;;;5084436;28;20281;-57
2023/05/27 10:52:12;;;;;;;14.87;5.07;;;20.00;99.90;;;;;;5075818;28;20222;-57
2023/05/27 10:54:47;;;;;;;10.93;4.67;;;19.70;99.90;;;;;;5085776;28;20559;-57
2023/05/27 10:57:17;;;;;;;14.97;4.77;;;20.10;99.90;;;;;;5065437;28;20280;-57
2023/05/27 10:59:55;;;;;;;10.63;4.43;;;20.20;99.90;;;;;;5082686;28;20210;-57
2023/05/27 11:02:34;;;;;;;16.03;4.67;;;20.10;99.90;;;;;;5076881;28;20212;-57
2023/05/27 11:05:08;;;;;;;13.07;4.60;;;20.60;99.90;;;;;;5061143;28;20198;-58
2023/05/27 11:07:38;;;;;;;11.17;5.00;;;20.90;99.90;;;;;;5085947;28;20226;-58
2023/05/27 11:10:07;;;;;;;11.20;5.10;;;20.80;99.90;;;;;;5083428;28;20295;-58
2023/05/27 11:12:34;;;;;;;13.87;6.10;;;21.10;99.90;;;;;;5061398;28;20210;-57
2023/05/27 11:15:02;;;;;;;10.70;4.37;;;21.10;99.90;;;;;;5082382;28;20670;-58
2023/05/27 11:17:29;;;;;;;12.93;4.43;;;21.10;99.90;;;;;;5078283;28;20613;-58
2023/05/27 11:19:58;;;;;;;12.77;4.40;;;21.60;99.90;;;;;;5081691;28;20213;-58
2023/05/27 11:22:26;;;;;;;15.53;4.10;;;21.50;99.90;;;;;;5081495;28;20202;-58
2023/05/27 11:25:00;;;;;;;21.03;5.13;;;21.80;99.90;;;;;;5080680;28;20214;-59
2023/05/27 11:27:39;;;;;;;13.13;5.17;;;22.00;99.90;;;;;;5082935;28;20238;-58
2023/05/27 11:30:11;;;;;;;15.83;5.20;;;21.30;99.90;;;;;;5081524;28;20371;-58
2023/05/27 11:32:40;;;;;;;12.40;5.70;;;20.70;99.90;;;;;;5080339;28;20390;-58
2023/05/27 11:35:14;;;;;;;11.30;5.10;;;20.40;1.00;;;;;;5081440;28;20202;-58
2023/05/27 11:37:53;;;;;;;11.57;4.83;;;20.50;99.90;;;;;;5061850;28;20207;-57
2023/05/27 11:40:21;;;;;;;13.37;4.80;;;20.30;99.90;;;;;;5088358;28;20195;-57
2023/05/27 11:42:48;;;;;;;11.87;4.30;;;20.70;99.90;;;;;;5084668;28;20207;-57
2023/05/27 11:45:19;;;;;;;10.43;4.70;;;20.70;1.00;;;;;;5081326;28;21659;-57
2023/05/27 11:47:50;;;;;;;12.07;4.77;;;20.70;1.00;;;;;;5082391;28;20279;-58
2023/05/27 11:50:19;;;;;;;10.97;4.47;;;20.80;99.90;;;;;;5083573;28;20258;-57
2023/05/27 11:52:53;;;;;;;9.77;4.00;;;20.90;1.00;;;;;;5084355;28;20687;-60
2023/05/27 11:55:20;;;;;;;10.73;4.00;;;21.10;1.00;;;;;;5085598;28;20206;-59
2023/05/27 11:57:48;;;;;;;7.77;3.87;;;21.30;99.90;;;;;;5083697;28;20195;-57
2023/05/27 12:00:15;;;;;;;8.60;4.47;;;21.40;99.90;;;;;;5084331;28;20285;-58
2023/05/27 12:02:43;;;;;;;7.03;3.80;;;21.20;1.00;;;;;;5070927;28;20210;-57
2023/05/27 12:05:10;;;;;;;8.97;3.60;;;21.60;99.90;;;;;;5084669;28;20683;-57
2023/05/27 12:07:51;;;;;;;7.57;4.00;;;21.60;99.90;;;;;;5083295;28;20217;-58
2023/05/27 12:10:18;;;;;;;8.80;3.87;;;21.70;99.90;;;;;;5080247;28;20403;-58
2023/05/27 12:12:45;;;;;;;8.17;3.23;;;21.50;99.90;;;;;;5072602;28;20202;-58
2023/05/27 12:15:12;;;;;;;7.63;3.57;;;21.40;99.90;;;;;;5078298;28;20197;-58
2023/05/27 12:17:39;;;;;;;8.53;3.60;;;21.50;99.90;;;;;;5079130;28;20198;-60
2023/05/27 12:20:08;;;;;;;11.37;4.03;;;21.50;99.90;;;;;;5078602;28;20673;-59
2023/05/27 12:22:35;;;;;;;10.10;3.57;;;21.70;99.90;;;;;;5075173;28;20260;-60
2023/05/27 12:25:02;;;;;;;10.50;3.63;;;21.80;99.90;;;;;;5079421;28;20203;-60
2023/05/27 12:27:32;;;;;;;12.37;4.07;;;21.80;99.90;;;;;;5082021;28;20230;-59
2023/05/27 12:29:59;;;;;;;15.43;4.30;;;21.80;99.90;;;;;;5078269;28;20195;-59
2023/05/27 12:32:26;;;;;;;12.60;4.67;;;21.90;99.90;;;;;;5073314;28;20307;-60
2023/05/27 12:34:52;;;;;;;10.60;3.83;;;21.80;99.90;;;;;;5079415;28;20218;-59
2023/05/27 12:37:20;;;;;;;12.03;5.00;;;21.90;99.90;;;;;;5079731;28;20198;-59
2023/05/27 12:39:51;;;;;;;11.27;4.67;;;22.10;99.90;;;;;;5075915;28;20678;-60
2023/05/27 12:42:18;;;;;;;9.87;4.13;;;22.10;99.90;;;;;;5080625;28;20238;-60
2023/05/27 12:44:46;;;;;;;13.23;4.60;;;22.00;99.90;;;;;;5062958;28;20377;-62
2023/05/27 12:47:13;;;;;;;10.83;3.50;;;21.90;99.90;;;;;;5060528;28;20214;-60